sensor_id;sensor_type;location;lat;lon;timestamp;temperature;humidity
16158;DHT22;8184;60.256;18.694;2022-10-31T00:01:26;5.00;99.90
16158;DHT22;8184;60.256;18.694;2022-10-31T00:03:55;5.00;99.90
16158;DHT22;8184;60.256;18.694;2022-10-31T00:06:23;5.10;99.90
16158;DHT22;8184;60.256;18.694;2022-10-31T00:08:52;5.10;99.90
16158;DHT22;8184;60.256;18.694;2022-10-31T00:11:21;5.10;99.90
16158;DHT22;8184;60.256;18.694;2022-10-31T00:13:49;5.00;99.90
16158;DHT22;8184;60.256;18.694;2022-10-31T00:16:21;5.00;99.90
16158;DHT22;8184;60.256;18.694;2022-10-31T00:18:50;5.00;99.90
16158;DHT22;8184;60.256;18.694;2022-10-31T00:21:18;5.20;99.90
16158;DHT22;8184;60.256;18.694;2022-10-31T00:23:49;5.10;99.90
16158;DHT22;8184;60.256;18.694;2022-10-31T00:26:18;5.10;99.90
16158;DHT22;8184;60.256;18.694;2022-10-31T00:28:46;5.10;99.90
16158;DHT22;8184;60.256;18.694;2022-10-31T00:31:14;5.10;99.90
16158;DHT22;8184;60.256;18.694;2022-10-31T00:33:44;5.10;99.90
16158;DHT22;8184;60.256;18.694;2022-10-31T00:36:13;5.10;99.90
16158;DHT22;8184;60.256;18.694;2022-10-31T00:38:44;5.20;99.90
16158;DHT22;8184;60.256;18.694;2022-10-31T00:41:13;5.20;99.90
16158;DHT22;8184;60.256;18.694;2022-10-31T00:43:42;5.20;99.90
16158;DHT22;8184;60.256;18.694;2022-10-31T00:46:10;5.20;99.90
16158;DHT22;8184;60.256;18.694;2022-10-31T00:48:39;5.20;99.90
16158;DHT22;8184;60.256;18.694;2022-10-31T00:51:08;5.30;99.90
16158;DHT22;8184;60.256;18.694;2022-10-31T00:53:36;5.20;99.90
16158;DHT22;8184;60.256;18.694;2022-10-31T00:56:05;5.20;99.90
16158;DHT22;8184;60.256;18.694;2022-10-31T00:58:33;5.30;99.90
16158;DHT22;8184;60.256;18.694;2022-10-31T01:01:02;5.30;99.90
16158;DHT22;8184;60.256;18.694;2022-10-31T01:03:31;5.30;99.90
16158;DHT22;8184;60.256;18.694;2022-10-31T01:05:59;5.30;99.90
16158;DHT22;8184;60.256;18.694;2022-10-31T01:08:29;5.40;99.90
16158;DHT22;8184;60.256;18.694;2022-10-31T01:10:59;5.30;99.90
16158;DHT22;8184;60.256;18.694;2022-10-31T01:13:27;5.40;99.90
16158;DHT22;8184;60.256;18.694;2022-10-31T01:15:55;5.40;99.90
16158;DHT22;8184;60.256;18.694;2022-10-31T01:18:24;5.30;99.90
16158;DHT22;8184;60.256;18.694;2022-10-31T01:20:59;5.40;99.90
16158;DHT22;8184;60.256;18.694;2022-10-31T01:23:29;5.40;99.90
16158;DHT22;8184;60.256;18.694;2022-10-31T01:25:59;5.40;99.90
16158;DHT22;8184;60.256;18.694;2022-10-31T01:28:27;5.50;99.90
16158;DHT22;8184;60.256;18.694;2022-10-31T01:30:55;5.40;99.90
16158;DHT22;8184;60.256;18.694;2022-10-31T01:33:23;5.40;99.90
16158;DHT22;8184;60.256;18.694;2022-10-31T01:35:51;5.50;99.90
16158;DHT22;8184;60.256;18.694;2022-10-31T01:38:19;5.50;99.90
16158;DHT22;8184;60.256;18.694;2022-10-31T01:40:51;5.50;99.90
16158;DHT22;8184;60.256;18.694;2022-10-31T01:43:19;5.50;99.90
16158;DHT22;8184;60.256;18.694;2022-10-31T01:45:52;5.50;99.90
16158;DHT22;8184;60.256;18.694;2022-10-31T01:48:24;5.50;99.90
16158;DHT22;8184;60.256;18.694;2022-10-31T01:50:54;5.50;99.90
16158;DHT22;8184;60.256;18.694;2022-10-31T01:53:23;5.50;99.90
16158;DHT22;8184;60.256;18.694;2022-10-31T01:55:54;5.60;99.90
16158;DHT22;8184;60.256;18.694;2022-10-31T01:58:22;5.60;99.90
16158;DHT22;8184;60.256;18.694;2022-10-31T02:00:54;5.60;99.90
16158;DHT22;8184;60.256;18.694;2022-10-31T02:03:28;5.70;99.90
16158;DHT22;8184;60.256;18.694;2022-10-31T02:05:57;5.70;99.90
16158;DHT22;8184;60.256;18.694;2022-10-31T02:08:28;5.70;99.90
16158;DHT22;8184;60.256;18.694;2022-10-31T02:10:58;5.70;99.90
16158;DHT22;8184;60.256;18.694;2022-10-31T02:13:29;5.80;99.90
16158;DHT22;8184;60.256;18.694;2022-10-31T02:15:58;5.80;99.90
16158;DHT22;8184;60.256;18.694;2022-10-31T02:18:27;5.80;99.90
16158;DHT22;8184;60.256;18.694;2022-10-31T02:20:58;5.80;99.90
16158;DHT22;8184;60.256;18.694;2022-10-31T02:31:56;5.80;99.90
16158;DHT22;8184;60.256;18.694;2022-10-31T02:34:28;5.80;99.90
16158;DHT22;8184;60.256;18.694;2022-10-31T02:36:59;5.90;99.90
16158;DHT22;8184;60.256;18.694;2022-10-31T02:39:34;5.90;99.90
16158;DHT22;8184;60.256;18.694;2022-10-31T02:42:07;5.90;99.90
16158;DHT22;8184;60.256;18.694;2022-10-31T02:44:36;5.80;99.90
16158;DHT22;8184;60.256;18.694;2022-10-31T02:47:08;5.90;99.90
16158;DHT22;8184;60.256;18.694;2022-10-31T02:49:38;5.90;99.90
16158;DHT22;8184;60.256;18.694;2022-10-31T02:52:16;5.90;99.90
16158;DHT22;8184;60.256;18.694;2022-10-31T02:54:45;5.90;99.90
16158;DHT22;8184;60.256;18.694;2022-10-31T02:57:14;5.90;99.90
16158;DHT22;8184;60.256;18.694;2022-10-31T02:59:44;5.80;99.90
16158;DHT22;8184;60.256;18.694;2022-10-31T03:05:13;5.90;99.90
16158;DHT22;8184;60.256;18.694;2022-10-31T03:07:45;5.90;99.90
16158;DHT22;8184;60.256;18.694;2022-10-31T03:10:20;5.90;99.90
16158;DHT22;8184;60.256;18.694;2022-10-31T03:12:53;5.90;99.90
16158;DHT22;8184;60.256;18.694;2022-10-31T03:15:27;5.90;99.90
16158;DHT22;8184;60.256;18.694;2022-10-31T03:17:58;5.90;99.90
16158;DHT22;8184;60.256;18.694;2022-10-31T03:20:30;5.90;99.90
16158;DHT22;8184;60.256;18.694;2022-10-31T03:23:01;6.00;99.90
16158;DHT22;8184;60.256;18.694;2022-10-31T03:25:30;5.90;99.90
16158;DHT22;8184;60.256;18.694;2022-10-31T03:27:59;6.00;99.90
16158;DHT22;8184;60.256;18.694;2022-10-31T03:30:30;6.00;99.90
16158;DHT22;8184;60.256;18.694;2022-10-31T03:33:01;5.90;99.90
16158;DHT22;8184;60.256;18.694;2022-10-31T03:35:37;5.90;99.90
16158;DHT22;8184;60.256;18.694;2022-10-31T03:38:09;5.90;99.90
16158;DHT22;8184;60.256;18.694;2022-10-31T03:40:37;5.90;99.90
16158;DHT22;8184;60.256;18.694;2022-10-31T03:43:07;5.90;99.90
16158;DHT22;8184;60.256;18.694;2022-10-31T03:45:39;5.90;99.90
16158;DHT22;8184;60.256;18.694;2022-10-31T03:48:09;5.90;99.90
16158;DHT22;8184;60.256;18.694;2022-10-31T03:50:40;5.90;99.90
16158;DHT22;8184;60.256;18.694;2022-10-31T03:53:10;5.90;99.90
16158;DHT22;8184;60.256;18.694;2022-10-31T03:55:40;5.90;99.90
16158;DHT22;8184;60.256;18.694;2022-10-31T03:58:09;5.90;99.90
16158;DHT22;8184;60.256;18.694;2022-10-31T04:00:38;5.80;99.90
16158;DHT22;8184;60.256;18.694;2022-10-31T04:03:09;5.90;99.90
16158;DHT22;8184;60.256;18.694;2022-10-31T04:05:39;5.90;99.90
16158;DHT22;8184;60.256;18.694;2022-10-31T04:08:09;5.90;99.90
16158;DHT22;8184;60.256;18.694;2022-10-31T04:10:38;5.90;99.90
16158;DHT22;8184;60.256;18.694;2022-10-31T04:13:08;5.90;99.90
16158;DHT22;8184;60.256;18.694;2022-10-31T04:15:37;5.90;99.90
16158;DHT22;8184;60.256;18.694;2022-10-31T04:18:06;5.90;99.90
16158;DHT22;8184;60.256;18.694;2022-10-31T04:20:35;5.90;99.90
16158;DHT22;8184;60.256;18.694;2022-10-31T04:23:05;5.90;99.90
16158;DHT22;8184;60.256;18.694;2022-10-31T04:25:40;5.90;99.90
16158;DHT22;8184;60.256;18.694;2022-10-31T04:28:08;5.90;99.90
16158;DHT22;8184;60.256;18.694;2022-10-31T04:30:36;5.90;99.90
16158;DHT22;8184;60.256;18.694;2022-10-31T04:33:05;5.90;99.90
16158;DHT22;8184;60.256;18.694;2022-10-31T04:35:33;5.90;99.90
16158;DHT22;8184;60.256;18.694;2022-10-31T04:38:01;5.90;99.90
16158;DHT22;8184;60.256;18.694;2022-10-31T04:40:31;5.90;99.90
16158;DHT22;8184;60.256;18.694;2022-10-31T04:42:59;5.90;99.90
16158;DHT22;8184;60.256;18.694;2022-10-31T04:45:28;5.90;99.90
16158;DHT22;8184;60.256;18.694;2022-10-31T04:47:56;5.90;99.90
16158;DHT22;8184;60.256;18.694;2022-10-31T04:50:25;5.90;99.90
16158;DHT22;8184;60.256;18.694;2022-10-31T04:52:53;5.90;99.90
16158;DHT22;8184;60.256;18.694;2022-10-31T04:55:22;5.90;99.90
16158;DHT22;8184;60.256;18.694;2022-10-31T04:57:51;6.00;99.90
16158;DHT22;8184;60.256;18.694;2022-10-31T05:00:20;6.00;99.90
16158;DHT22;8184;60.256;18.694;2022-10-31T05:02:49;6.00;99.90
16158;DHT22;8184;60.256;18.694;2022-10-31T05:05:21;6.00;99.90
16158;DHT22;8184;60.256;18.694;2022-10-31T05:07:50;6.00;99.90
16158;DHT22;8184;60.256;18.694;2022-10-31T05:10:19;6.00;99.90
16158;DHT22;8184;60.256;18.694;2022-10-31T05:12:49;6.00;99.90
16158;DHT22;8184;60.256;18.694;2022-10-31T05:15:19;6.00;99.90
16158;DHT22;8184;60.256;18.694;2022-10-31T05:17:49;6.00;99.90
16158;DHT22;8184;60.256;18.694;2022-10-31T05:20:18;6.00;99.90
16158;DHT22;8184;60.256;18.694;2022-10-31T05:22:47;6.20;99.90
16158;DHT22;8184;60.256;18.694;2022-10-31T05:25:16;6.00;99.90
16158;DHT22;8184;60.256;18.694;2022-10-31T05:27:48;6.00;99.90
16158;DHT22;8184;60.256;18.694;2022-10-31T05:30:19;6.00;99.90
16158;DHT22;8184;60.256;18.694;2022-10-31T05:32:48;6.00;99.90
16158;DHT22;8184;60.256;18.694;2022-10-31T05:35:17;6.00;99.90
16158;DHT22;8184;60.256;18.694;2022-10-31T05:37:46;6.10;99.90
16158;DHT22;8184;60.256;18.694;2022-10-31T05:40:17;6.10;99.90
16158;DHT22;8184;60.256;18.694;2022-10-31T05:42:46;6.10;99.90
16158;DHT22;8184;60.256;18.694;2022-10-31T05:45:15;6.10;99.90
16158;DHT22;8184;60.256;18.694;2022-10-31T05:47:50;6.10;99.90
16158;DHT22;8184;60.256;18.694;2022-10-31T05:50:19;6.10;99.90
16158;DHT22;8184;60.256;18.694;2022-10-31T05:52:47;6.10;99.90
16158;DHT22;8184;60.256;18.694;2022-10-31T05:55:15;6.20;99.90
16158;DHT22;8184;60.256;18.694;2022-10-31T05:57:43;6.20;99.90
16158;DHT22;8184;60.256;18.694;2022-10-31T06:00:12;6.20;99.90
16158;DHT22;8184;60.256;18.694;2022-10-31T06:02:40;6.20;99.90
16158;DHT22;8184;60.256;18.694;2022-10-31T06:05:10;6.40;99.90
16158;DHT22;8184;60.256;18.694;2022-10-31T06:07:40;6.20;99.90
16158;DHT22;8184;60.256;18.694;2022-10-31T06:10:08;6.20;99.90
16158;DHT22;8184;60.256;18.694;2022-10-31T06:12:37;6.20;99.90
16158;DHT22;8184;60.256;18.694;2022-10-31T06:15:07;6.10;99.90
16158;DHT22;8184;60.256;18.694;2022-10-31T06:17:39;6.10;99.90
16158;DHT22;8184;60.256;18.694;2022-10-31T06:20:07;6.20;99.90
16158;DHT22;8184;60.256;18.694;2022-10-31T06:22:37;6.20;99.90
16158;DHT22;8184;60.256;18.694;2022-10-31T06:25:06;6.20;99.90
16158;DHT22;8184;60.256;18.694;2022-10-31T06:27:35;6.20;99.90
16158;DHT22;8184;60.256;18.694;2022-10-31T06:30:03;6.20;99.90
16158;DHT22;8184;60.256;18.694;2022-10-31T06:32:32;6.30;99.90
16158;DHT22;8184;60.256;18.694;2022-10-31T06:35:00;6.30;99.90
16158;DHT22;8184;60.256;18.694;2022-10-31T06:37:28;6.30;99.90
16158;DHT22;8184;60.256;18.694;2022-10-31T06:39:58;6.30;99.90
16158;DHT22;8184;60.256;18.694;2022-10-31T06:42:29;6.40;99.90
16158;DHT22;8184;60.256;18.694;2022-10-31T06:45:00;6.40;99.90
16158;DHT22;8184;60.256;18.694;2022-10-31T06:47:28;6.40;99.90
16158;DHT22;8184;60.256;18.694;2022-10-31T06:49:56;6.50;99.90
16158;DHT22;8184;60.256;18.694;2022-10-31T06:52:24;6.50;99.90
16158;DHT22;8184;60.256;18.694;2022-10-31T06:54:52;6.50;99.90
16158;DHT22;8184;60.256;18.694;2022-10-31T06:57:22;6.50;99.90
16158;DHT22;8184;60.256;18.694;2022-10-31T06:59:50;6.50;99.90
16158;DHT22;8184;60.256;18.694;2022-10-31T07:02:19;6.50;99.90
16158;DHT22;8184;60.256;18.694;2022-10-31T07:04:47;6.50;99.90
16158;DHT22;8184;60.256;18.694;2022-10-31T07:07:15;6.50;99.90
16158;DHT22;8184;60.256;18.694;2022-10-31T07:09:47;6.50;99.90
16158;DHT22;8184;60.256;18.694;2022-10-31T07:12:16;6.50;99.90
16158;DHT22;8184;60.256;18.694;2022-10-31T07:14:45;6.50;99.90
16158;DHT22;8184;60.256;18.694;2022-10-31T07:17:14;6.50;99.90
16158;DHT22;8184;60.256;18.694;2022-10-31T07:19:42;6.50;99.90
16158;DHT22;8184;60.256;18.694;2022-10-31T07:22:13;6.60;99.90
16158;DHT22;8184;60.256;18.694;2022-10-31T07:24:41;6.60;99.90
16158;DHT22;8184;60.256;18.694;2022-10-31T07:27:09;6.60;99.90
16158;DHT22;8184;60.256;18.694;2022-10-31T07:29:40;6.60;99.90
16158;DHT22;8184;60.256;18.694;2022-10-31T07:32:10;6.60;99.90
16158;DHT22;8184;60.256;18.694;2022-10-31T07:34:40;6.60;99.90
16158;DHT22;8184;60.256;18.694;2022-10-31T07:37:13;6.70;99.90
16158;DHT22;8184;60.256;18.694;2022-10-31T07:39:43;6.70;99.90
16158;DHT22;8184;60.256;18.694;2022-10-31T07:42:11;6.70;99.90
16158;DHT22;8184;60.256;18.694;2022-10-31T07:44:39;6.80;99.90
16158;DHT22;8184;60.256;18.694;2022-10-31T07:47:07;6.80;99.90
16158;DHT22;8184;60.256;18.694;2022-10-31T07:49:37;6.80;99.90
16158;DHT22;8184;60.256;18.694;2022-10-31T07:52:05;6.80;99.90
16158;DHT22;8184;60.256;18.694;2022-10-31T07:54:33;6.80;99.90
16158;DHT22;8184;60.256;18.694;2022-10-31T07:57:03;6.90;99.90
16158;DHT22;8184;60.256;18.694;2022-10-31T07:59:31;6.90;99.90
16158;DHT22;8184;60.256;18.694;2022-10-31T08:01:59;6.90;99.90
16158;DHT22;8184;60.256;18.694;2022-10-31T08:04:28;6.90;99.90
16158;DHT22;8184;60.256;18.694;2022-10-31T08:06:57;6.90;99.90
16158;DHT22;8184;60.256;18.694;2022-10-31T08:09:26;6.90;99.90
16158;DHT22;8184;60.256;18.694;2022-10-31T08:11:54;7.00;99.90
16158;DHT22;8184;60.256;18.694;2022-10-31T08:14:22;7.00;99.90
16158;DHT22;8184;60.256;18.694;2022-10-31T08:16:51;7.00;99.90
16158;DHT22;8184;60.256;18.694;2022-10-31T08:19:19;7.00;99.90
16158;DHT22;8184;60.256;18.694;2022-10-31T08:21:50;7.00;99.90
16158;DHT22;8184;60.256;18.694;2022-10-31T08:24:19;7.10;99.90
16158;DHT22;8184;60.256;18.694;2022-10-31T08:26:48;7.10;99.90
16158;DHT22;8184;60.256;18.694;2022-10-31T08:29:16;7.10;99.90
16158;DHT22;8184;60.256;18.694;2022-10-31T08:31:44;7.20;99.90
16158;DHT22;8184;60.256;18.694;2022-10-31T08:34:13;7.20;99.90
16158;DHT22;8184;60.256;18.694;2022-10-31T08:36:41;7.20;99.90
16158;DHT22;8184;60.256;18.694;2022-10-31T08:39:11;7.30;99.90
16158;DHT22;8184;60.256;18.694;2022-10-31T08:41:41;7.30;99.90
16158;DHT22;8184;60.256;18.694;2022-10-31T08:44:09;7.30;99.90
16158;DHT22;8184;60.256;18.694;2022-10-31T08:46:37;7.40;99.90
16158;DHT22;8184;60.256;18.694;2022-10-31T08:49:06;7.40;99.90
16158;DHT22;8184;60.256;18.694;2022-10-31T08:51:34;7.40;99.90
16158;DHT22;8184;60.256;18.694;2022-10-31T08:54:02;7.50;99.90
16158;DHT22;8184;60.256;18.694;2022-10-31T08:56:33;7.50;99.90
16158;DHT22;8184;60.256;18.694;2022-10-31T08:59:02;7.50;99.90
16158;DHT22;8184;60.256;18.694;2022-10-31T09:01:31;7.50;99.90
16158;DHT22;8184;60.256;18.694;2022-10-31T09:03:59;7.60;99.90
16158;DHT22;8184;60.256;18.694;2022-10-31T09:06:27;7.60;99.90
16158;DHT22;8184;60.256;18.694;2022-10-31T09:08:56;7.70;99.90
16158;DHT22;8184;60.256;18.694;2022-10-31T09:11:24;7.70;99.90
16158;DHT22;8184;60.256;18.694;2022-10-31T09:13:52;7.80;99.90
16158;DHT22;8184;60.256;18.694;2022-10-31T09:16:22;7.80;99.90
16158;DHT22;8184;60.256;18.694;2022-10-31T09:18:50;7.80;99.90
16158;DHT22;8184;60.256;18.694;2022-10-31T09:21:21;7.90;99.90
16158;DHT22;8184;60.256;18.694;2022-10-31T09:23:49;7.90;99.90
16158;DHT22;8184;60.256;18.694;2022-10-31T09:26:19;7.90;99.90
16158;DHT22;8184;60.256;18.694;2022-10-31T09:28:48;7.90;99.90
16158;DHT22;8184;60.256;18.694;2022-10-31T09:31:16;7.90;99.90
16158;DHT22;8184;60.256;18.694;2022-10-31T09:33:46;7.90;99.90
16158;DHT22;8184;60.256;18.694;2022-10-31T09:36:14;7.90;99.90
16158;DHT22;8184;60.256;18.694;2022-10-31T09:38:42;7.90;99.90
16158;DHT22;8184;60.256;18.694;2022-10-31T09:41:14;7.90;99.90
16158;DHT22;8184;60.256;18.694;2022-10-31T09:43:46;7.90;99.90
16158;DHT22;8184;60.256;18.694;2022-10-31T09:46:20;7.90;99.90
16158;DHT22;8184;60.256;18.694;2022-10-31T09:48:53;7.90;99.90
16158;DHT22;8184;60.256;18.694;2022-10-31T09:51:24;7.90;99.90
16158;DHT22;8184;60.256;18.694;2022-10-31T09:53:57;7.90;99.90
16158;DHT22;8184;60.256;18.694;2022-10-31T09:56:27;7.90;99.90
16158;DHT22;8184;60.256;18.694;2022-10-31T09:58:56;7.90;99.90
16158;DHT22;8184;60.256;18.694;2022-10-31T10:01:30;7.90;99.90
16158;DHT22;8184;60.256;18.694;2022-10-31T10:04:04;8.00;99.90
16158;DHT22;8184;60.256;18.694;2022-10-31T10:06:33;8.00;99.90
16158;DHT22;8184;60.256;18.694;2022-10-31T10:09:03;8.10;99.90
16158;DHT22;8184;60.256;18.694;2022-10-31T10:11:34;8.10;99.90
16158;DHT22;8184;60.256;18.694;2022-10-31T10:14:12;8.10;99.90
16158;DHT22;8184;60.256;18.694;2022-10-31T10:16:47;8.20;99.90
16158;DHT22;8184;60.256;18.694;2022-10-31T10:19:30;8.20;99.90
16158;DHT22;8184;60.256;18.694;2022-10-31T10:22:03;8.20;99.90
16158;DHT22;8184;60.256;18.694;2022-10-31T10:24:41;8.20;99.90
16158;DHT22;8184;60.256;18.694;2022-10-31T10:27:20;8.30;99.90
16158;DHT22;8184;60.256;18.694;2022-10-31T10:29:53;8.30;99.90
16158;DHT22;8184;60.256;18.694;2022-10-31T10:32:24;8.20;99.90
16158;DHT22;8184;60.256;18.694;2022-10-31T10:34:55;8.30;99.90
16158;DHT22;8184;60.256;18.694;2022-10-31T10:37:28;8.30;99.90
16158;DHT22;8184;60.256;18.694;2022-10-31T10:40:00;8.30;99.90
16158;DHT22;8184;60.256;18.694;2022-10-31T10:42:33;8.30;99.90
16158;DHT22;8184;60.256;18.694;2022-10-31T10:45:20;8.40;99.90
16158;DHT22;8184;60.256;18.694;2022-10-31T10:48:08;8.40;99.90
16158;DHT22;8184;60.256;18.694;2022-10-31T10:50:41;8.40;99.90
16158;DHT22;8184;60.256;18.694;2022-10-31T10:53:15;8.40;99.90
16158;DHT22;8184;60.256;18.694;2022-10-31T10:55:49;8.50;99.90
16158;DHT22;8184;60.256;18.694;2022-10-31T10:58:20;8.50;99.90
16158;DHT22;8184;60.256;18.694;2022-10-31T11:00:48;8.60;99.90
16158;DHT22;8184;60.256;18.694;2022-10-31T11:03:17;8.60;99.90
16158;DHT22;8184;60.256;18.694;2022-10-31T11:05:47;8.70;99.90
16158;DHT22;8184;60.256;18.694;2022-10-31T11:08:24;8.70;99.90
16158;DHT22;8184;60.256;18.694;2022-10-31T11:10:58;8.70;99.90
16158;DHT22;8184;60.256;18.694;2022-10-31T11:13:26;8.80;99.90
16158;DHT22;8184;60.256;18.694;2022-10-31T11:15:59;8.90;99.90
16158;DHT22;8184;60.256;18.694;2022-10-31T11:18:34;8.90;99.90
16158;DHT22;8184;60.256;18.694;2022-10-31T11:21:19;9.00;99.90
16158;DHT22;8184;60.256;18.694;2022-10-31T11:23:48;9.00;99.90
16158;DHT22;8184;60.256;18.694;2022-10-31T11:26:18;9.00;99.90
16158;DHT22;8184;60.256;18.694;2022-10-31T11:28:55;9.00;99.90
16158;DHT22;8184;60.256;18.694;2022-10-31T11:31:24;9.10;99.90
16158;DHT22;8184;60.256;18.694;2022-10-31T11:33:55;9.10;99.90
16158;DHT22;8184;60.256;18.694;2022-10-31T11:36:27;9.10;99.90
16158;DHT22;8184;60.256;18.694;2022-10-31T11:38:57;9.20;99.90
16158;DHT22;8184;60.256;18.694;2022-10-31T11:41:27;9.30;99.90
16158;DHT22;8184;60.256;18.694;2022-10-31T11:43:57;9.30;99.90
16158;DHT22;8184;60.256;18.694;2022-10-31T11:46:33;9.30;99.90
16158;DHT22;8184;60.256;18.694;2022-10-31T11:49:02;9.40;99.90
16158;DHT22;8184;60.256;18.694;2022-10-31T11:51:33;9.50;99.90
16158;DHT22;8184;60.256;18.694;2022-10-31T11:54:02;9.50;99.90
16158;DHT22;8184;60.256;18.694;2022-10-31T11:56:40;9.60;99.90
16158;DHT22;8184;60.256;18.694;2022-10-31T11:59:17;9.60;99.90
16158;DHT22;8184;60.256;18.694;2022-10-31T12:01:48;9.70;99.90
16158;DHT22;8184;60.256;18.694;2022-10-31T12:04:23;9.70;99.90
16158;DHT22;8184;60.256;18.694;2022-10-31T12:06:53;9.70;99.90
16158;DHT22;8184;60.256;18.694;2022-10-31T12:09:23;9.70;99.90
16158;DHT22;8184;60.256;18.694;2022-10-31T12:12:00;9.80;99.90
16158;DHT22;8184;60.256;18.694;2022-10-31T12:14:31;9.80;99.90
16158;DHT22;8184;60.256;18.694;2022-10-31T12:17:05;9.80;99.90
16158;DHT22;8184;60.256;18.694;2022-10-31T12:19:37;9.80;99.90
16158;DHT22;8184;60.256;18.694;2022-10-31T12:22:11;9.80;99.90
16158;DHT22;8184;60.256;18.694;2022-10-31T12:24:45;9.90;99.90
16158;DHT22;8184;60.256;18.694;2022-10-31T12:27:17;9.90;99.90
16158;DHT22;8184;60.256;18.694;2022-10-31T12:29:52;10.00;99.90
16158;DHT22;8184;60.256;18.694;2022-10-31T12:32:26;10.00;99.90
16158;DHT22;8184;60.256;18.694;2022-10-31T12:35:13;10.00;99.90
16158;DHT22;8184;60.256;18.694;2022-10-31T12:37:50;10.00;99.90
16158;DHT22;8184;60.256;18.694;2022-10-31T12:40:30;10.00;99.90
16158;DHT22;8184;60.256;18.694;2022-10-31T12:43:04;10.10;99.90
16158;DHT22;8184;60.256;18.694;2022-10-31T12:45:39;10.20;99.90
16158;DHT22;8184;60.256;18.694;2022-10-31T12:48:16;10.20;99.90
16158;DHT22;8184;60.256;18.694;2022-10-31T12:50:50;10.10;99.90
16158;DHT22;8184;60.256;18.694;2022-10-31T12:53:25;10.10;99.90
16158;DHT22;8184;60.256;18.694;2022-10-31T12:55:58;10.20;99.90
16158;DHT22;8184;60.256;18.694;2022-10-31T12:58:32;10.20;99.90
16158;DHT22;8184;60.256;18.694;2022-10-31T13:01:03;10.20;99.90
16158;DHT22;8184;60.256;18.694;2022-10-31T13:03:36;10.30;99.90
16158;DHT22;8184;60.256;18.694;2022-10-31T13:06:07;10.40;99.90
16158;DHT22;8184;60.256;18.694;2022-10-31T13:08:41;10.50;99.90
16158;DHT22;8184;60.256;18.694;2022-10-31T13:11:12;10.50;99.90
16158;DHT22;8184;60.256;18.694;2022-10-31T13:13:43;10.50;99.90
16158;DHT22;8184;60.256;18.694;2022-10-31T13:16:13;10.40;99.90
16158;DHT22;8184;60.256;18.694;2022-10-31T13:18:45;10.50;99.90
16158;DHT22;8184;60.256;18.694;2022-10-31T13:21:17;10.50;99.90
16158;DHT22;8184;60.256;18.694;2022-10-31T13:23:50;10.40;99.90
16158;DHT22;8184;60.256;18.694;2022-10-31T13:26:23;10.40;99.90
16158;DHT22;8184;60.256;18.694;2022-10-31T13:28:57;10.50;99.90
16158;DHT22;8184;60.256;18.694;2022-10-31T13:31:28;10.50;99.90
16158;DHT22;8184;60.256;18.694;2022-10-31T13:33:57;10.40;99.90
16158;DHT22;8184;60.256;18.694;2022-10-31T13:36:29;10.40;99.90
16158;DHT22;8184;60.256;18.694;2022-10-31T13:39:03;10.40;99.90
16158;DHT22;8184;60.256;18.694;2022-10-31T13:41:40;10.40;99.90
16158;DHT22;8184;60.256;18.694;2022-10-31T13:44:13;10.40;99.90
16158;DHT22;8184;60.256;18.694;2022-10-31T13:46:42;10.40;99.90
16158;DHT22;8184;60.256;18.694;2022-10-31T13:49:21;10.40;99.90
16158;DHT22;8184;60.256;18.694;2022-10-31T13:52:05;10.30;99.90
16158;DHT22;8184;60.256;18.694;2022-10-31T13:54:35;10.30;99.90
16158;DHT22;8184;60.256;18.694;2022-10-31T13:57:06;10.30;99.90
16158;DHT22;8184;60.256;18.694;2022-10-31T13:59:37;10.30;99.90
16158;DHT22;8184;60.256;18.694;2022-10-31T14:02:13;10.30;99.90
16158;DHT22;8184;60.256;18.694;2022-10-31T14:04:44;10.30;99.90
16158;DHT22;8184;60.256;18.694;2022-10-31T14:07:20;10.20;99.90
16158;DHT22;8184;60.256;18.694;2022-10-31T14:09:52;10.20;99.90
16158;DHT22;8184;60.256;18.694;2022-10-31T14:12:23;10.20;99.90
16158;DHT22;8184;60.256;18.694;2022-10-31T14:14:53;10.20;99.90
16158;DHT22;8184;60.256;18.694;2022-10-31T14:17:23;10.20;99.90
16158;DHT22;8184;60.256;18.694;2022-10-31T14:19:59;10.10;99.90
16158;DHT22;8184;60.256;18.694;2022-10-31T14:22:31;10.10;99.90
16158;DHT22;8184;60.256;18.694;2022-10-31T14:27:51;10.10;99.90
16158;DHT22;8184;60.256;18.694;2022-10-31T14:30:20;10.10;99.90
16158;DHT22;8184;60.256;18.694;2022-10-31T14:32:50;10.00;99.90
16158;DHT22;8184;60.256;18.694;2022-10-31T14:35:19;10.10;99.90
16158;DHT22;8184;60.256;18.694;2022-10-31T14:37:56;10.10;99.90
16158;DHT22;8184;60.256;18.694;2022-10-31T14:40:30;10.10;99.90
16158;DHT22;8184;60.256;18.694;2022-10-31T14:43:07;10.10;99.90
16158;DHT22;8184;60.256;18.694;2022-10-31T14:45:43;10.10;99.90
16158;DHT22;8184;60.256;18.694;2022-10-31T14:48:19;10.10;99.90
16158;DHT22;8184;60.256;18.694;2022-10-31T14:50:50;10.10;99.90
16158;DHT22;8184;60.256;18.694;2022-10-31T14:53:20;10.10;99.90
16158;DHT22;8184;60.256;18.694;2022-10-31T14:55:51;10.10;99.90
16158;DHT22;8184;60.256;18.694;2022-10-31T14:58:24;10.10;99.90
16158;DHT22;8184;60.256;18.694;2022-10-31T15:00:55;10.10;99.90
16158;DHT22;8184;60.256;18.694;2022-10-31T15:03:26;10.10;99.90
16158;DHT22;8184;60.256;18.694;2022-10-31T15:05:56;10.00;99.90
16158;DHT22;8184;60.256;18.694;2022-10-31T15:08:31;10.00;99.90
16158;DHT22;8184;60.256;18.694;2022-10-31T15:11:02;10.00;99.90
16158;DHT22;8184;60.256;18.694;2022-10-31T15:13:33;10.00;99.90
16158;DHT22;8184;60.256;18.694;2022-10-31T15:16:02;10.00;99.90
16158;DHT22;8184;60.256;18.694;2022-10-31T15:18:32;9.90;99.90
16158;DHT22;8184;60.256;18.694;2022-10-31T15:21:00;9.90;99.90
16158;DHT22;8184;60.256;18.694;2022-10-31T15:23:37;9.90;99.90
16158;DHT22;8184;60.256;18.694;2022-10-31T15:26:05;9.90;99.90
16158;DHT22;8184;60.256;18.694;2022-10-31T15:28:35;9.90;99.90
16158;DHT22;8184;60.256;18.694;2022-10-31T15:31:03;9.90;99.90
16158;DHT22;8184;60.256;18.694;2022-10-31T15:33:39;9.90;99.90
16158;DHT22;8184;60.256;18.694;2022-10-31T15:36:18;9.90;99.90
16158;DHT22;8184;60.256;18.694;2022-10-31T15:38:55;9.90;99.90
16158;DHT22;8184;60.256;18.694;2022-10-31T15:41:28;9.80;99.90
16158;DHT22;8184;60.256;18.694;2022-10-31T15:44:00;9.80;99.90
16158;DHT22;8184;60.256;18.694;2022-10-31T15:46:29;9.80;99.90
16158;DHT22;8184;60.256;18.694;2022-10-31T15:48:57;9.80;99.90
16158;DHT22;8184;60.256;18.694;2022-10-31T15:51:26;9.80;99.90
16158;DHT22;8184;60.256;18.694;2022-10-31T15:53:55;9.70;99.90
16158;DHT22;8184;60.256;18.694;2022-10-31T15:56:28;9.70;99.90
16158;DHT22;8184;60.256;18.694;2022-10-31T15:59:11;9.70;99.90
16158;DHT22;8184;60.256;18.694;2022-10-31T16:01:40;9.60;99.90
16158;DHT22;8184;60.256;18.694;2022-10-31T16:04:19;9.70;99.90
16158;DHT22;8184;60.256;18.694;2022-10-31T16:06:55;9.70;99.90
16158;DHT22;8184;60.256;18.694;2022-10-31T16:09:24;9.70;99.90
16158;DHT22;8184;60.256;18.694;2022-10-31T16:11:53;9.60;99.90
16158;DHT22;8184;60.256;18.694;2022-10-31T16:14:28;9.60;99.90
16158;DHT22;8184;60.256;18.694;2022-10-31T16:16:58;9.60;99.90
16158;DHT22;8184;60.256;18.694;2022-10-31T16:19:30;9.60;99.90